sensor_id;sensor_type;location;lat;lon;timestamp;P1;durP1;ratioP1;P2;durP2;ratioP2
18899;SDS011;9582;52.018;6.306;2022-12-18T00:02:06;75.30;;;29.00;;
18899;SDS011;9582;52.018;6.306;2022-12-18T00:04:33;67.27;;;27.63;;
18899;SDS011;9582;52.018;6.306;2022-12-18T00:06:59;67.47;;;27.73;;
18899;SDS011;9582;52.018;6.306;2022-12-18T00:09:27;66.73;;;27.90;;
18899;SDS011;9582;52.018;6.306;2022-12-18T00:11:55;68.40;;;27.67;;
18899;SDS011;9582;52.018;6.306;2022-12-18T00:14:22;75.07;;;28.73;;
18899;SDS011;9582;52.018;6.306;2022-12-18T00:16:48;68.03;;;28.20;;
18899;SDS011;9582;52.018;6.306;2022-12-18T00:19:15;64.33;;;26.97;;
18899;SDS011;9582;52.018;6.306;2022-12-18T00:21:41;66.07;;;26.93;;
18899;SDS011;9582;52.018;6.306;2022-12-18T00:24:09;68.40;;;28.43;;
18899;SDS011;9582;52.018;6.306;2022-12-18T00:26:37;63.30;;;26.67;;
18899;SDS011;9582;52.018;6.306;2022-12-18T00:29:06;60.37;;;24.97;;
18899;SDS011;9582;52.018;6.306;2022-12-18T00:31:35;63.47;;;27.77;;
18899;SDS011;9582;52.018;6.306;2022-12-18T00:34:01;61.00;;;27.07;;
18899;SDS011;9582;52.018;6.306;2022-12-18T00:36:29;62.67;;;26.73;;
18899;SDS011;9582;52.018;6.306;2022-12-18T00:38:57;65.93;;;27.20;;
18899;SDS011;9582;52.018;6.306;2022-12-18T00:41:25;55.77;;;25.47;;
18899;SDS011;9582;52.018;6.306;2022-12-18T00:44:12;51.93;;;24.87;;
18899;SDS011;9582;52.018;6.306;2022-12-18T00:46:40;65.40;;;26.90;;
18899;SDS011;9582;52.018;6.306;2022-12-18T00:49:07;64.73;;;26.57;;
18899;SDS011;9582;52.018;6.306;2022-12-18T00:51:34;65.03;;;26.73;;
18899;SDS011;9582;52.018;6.306;2022-12-18T00:54:00;61.27;;;27.00;;
18899;SDS011;9582;52.018;6.306;2022-12-18T00:56:27;67.80;;;28.70;;
18899;SDS011;9582;52.018;6.306;2022-12-18T00:58:54;59.53;;;27.27;;
18899;SDS011;9582;52.018;6.306;2022-12-18T01:01:21;57.73;;;26.23;;
18899;SDS011;9582;52.018;6.306;2022-12-18T01:03:48;63.93;;;27.10;;
18899;SDS011;9582;52.018;6.306;2022-12-18T01:06:15;55.30;;;25.80;;
18899;SDS011;9582;52.018;6.306;2022-12-18T01:08:42;56.03;;;25.70;;
18899;SDS011;9582;52.018;6.306;2022-12-18T01:11:12;64.63;;;26.73;;
18899;SDS011;9582;52.018;6.306;2022-12-18T01:13:40;60.40;;;26.10;;
18899;SDS011;9582;52.018;6.306;2022-12-18T01:16:07;60.63;;;26.40;;
18899;SDS011;9582;52.018;6.306;2022-12-18T01:18:36;59.20;;;25.40;;
18899;SDS011;9582;52.018;6.306;2022-12-18T01:21:05;52.67;;;24.13;;
18899;SDS011;9582;52.018;6.306;2022-12-18T01:23:35;58.97;;;25.90;;
18899;SDS011;9582;52.018;6.306;2022-12-18T01:26:06;59.90;;;26.37;;
18899;SDS011;9582;52.018;6.306;2022-12-18T01:28:34;54.67;;;25.47;;
18899;SDS011;9582;52.018;6.306;2022-12-18T01:31:11;53.20;;;25.70;;
18899;SDS011;9582;52.018;6.306;2022-12-18T01:33:40;58.93;;;25.70;;
18899;SDS011;9582;52.018;6.306;2022-12-18T01:36:07;54.13;;;24.87;;
18899;SDS011;9582;52.018;6.306;2022-12-18T01:38:34;52.27;;;24.60;;
18899;SDS011;9582;52.018;6.306;2022-12-18T01:41:00;57.23;;;24.67;;
18899;SDS011;9582;52.018;6.306;2022-12-18T01:46:10;52.07;;;24.07;;
18899;SDS011;9582;52.018;6.306;2022-12-18T01:48:37;50.07;;;23.83;;
18899;SDS011;9582;52.018;6.306;2022-12-18T01:51:07;47.80;;;22.50;;
18899;SDS011;9582;52.018;6.306;2022-12-18T01:53:35;49.70;;;23.17;;
18899;SDS011;9582;52.018;6.306;2022-12-18T01:56:03;49.63;;;23.73;;
18899;SDS011;9582;52.018;6.306;2022-12-18T01:58:32;53.33;;;24.33;;
18899;SDS011;9582;52.018;6.306;2022-12-18T02:01:06;52.53;;;22.80;;
18899;SDS011;9582;52.018;6.306;2022-12-18T02:03:33;43.67;;;21.93;;
18899;SDS011;9582;52.018;6.306;2022-12-18T02:06:00;42.50;;;22.27;;
18899;SDS011;9582;52.018;6.306;2022-12-18T02:08:36;46.93;;;21.90;;
18899;SDS011;9582;52.018;6.306;2022-12-18T02:11:14;45.83;;;22.10;;
18899;SDS011;9582;52.018;6.306;2022-12-18T02:13:50;41.23;;;20.80;;
18899;SDS011;9582;52.018;6.306;2022-12-18T02:16:28;45.03;;;20.93;;
18899;SDS011;9582;52.018;6.306;2022-12-18T02:19:00;47.40;;;21.23;;
18899;SDS011;9582;52.018;6.306;2022-12-18T02:21:43;41.83;;;20.63;;
18899;SDS011;9582;52.018;6.306;2022-12-18T02:24:22;44.27;;;20.47;;
18899;SDS011;9582;52.018;6.306;2022-12-18T02:26:57;43.40;;;21.07;;
18899;SDS011;9582;52.018;6.306;2022-12-18T02:29:29;40.53;;;20.23;;
18899;SDS011;9582;52.018;6.306;2022-12-18T02:32:00;40.80;;;19.93;;
18899;SDS011;9582;52.018;6.306;2022-12-18T02:34:31;47.17;;;21.00;;
18899;SDS011;9582;52.018;6.306;2022-12-18T02:37:02;41.07;;;20.47;;
18899;SDS011;9582;52.018;6.306;2022-12-18T02:39:33;40.10;;;19.47;;
18899;SDS011;9582;52.018;6.306;2022-12-18T02:42:04;42.10;;;20.57;;
18899;SDS011;9582;52.018;6.306;2022-12-18T02:44:33;36.70;;;18.93;;
18899;SDS011;9582;52.018;6.306;2022-12-18T02:47:02;37.40;;;19.47;;
18899;SDS011;9582;52.018;6.306;2022-12-18T02:49:31;41.87;;;21.13;;
18899;SDS011;9582;52.018;6.306;2022-12-18T02:52:10;41.23;;;19.50;;
18899;SDS011;9582;52.018;6.306;2022-12-18T02:54:51;39.73;;;20.53;;
18899;SDS011;9582;52.018;6.306;2022-12-18T02:57:27;37.40;;;19.73;;
18899;SDS011;9582;52.018;6.306;2022-12-18T03:00:02;37.00;;;18.97;;
18899;SDS011;9582;52.018;6.306;2022-12-18T03:02:35;38.67;;;18.70;;
18899;SDS011;9582;52.018;6.306;2022-12-18T03:05:11;38.60;;;18.87;;
18899;SDS011;9582;52.018;6.306;2022-12-18T03:07:42;40.57;;;18.37;;
18899;SDS011;9582;52.018;6.306;2022-12-18T03:10:14;34.60;;;17.73;;
18899;SDS011;9582;52.018;6.306;2022-12-18T03:12:47;34.30;;;17.83;;
18899;SDS011;9582;52.018;6.306;2022-12-18T03:15:21;36.80;;;18.30;;
18899;SDS011;9582;52.018;6.306;2022-12-18T03:17:59;36.23;;;18.17;;
18899;SDS011;9582;52.018;6.306;2022-12-18T03:20:31;35.97;;;17.37;;
18899;SDS011;9582;52.018;6.306;2022-12-18T03:23:02;36.27;;;18.07;;
18899;SDS011;9582;52.018;6.306;2022-12-18T03:25:32;33.67;;;16.80;;
18899;SDS011;9582;52.018;6.306;2022-12-18T03:28:02;37.20;;;17.43;;
18899;SDS011;9582;52.018;6.306;2022-12-18T03:30:33;27.83;;;15.83;;
18899;SDS011;9582;52.018;6.306;2022-12-18T03:33:05;35.13;;;15.80;;
18899;SDS011;9582;52.018;6.306;2022-12-18T03:35:37;30.67;;;15.90;;
18899;SDS011;9582;52.018;6.306;2022-12-18T03:38:06;34.70;;;17.27;;
18899;SDS011;9582;52.018;6.306;2022-12-18T03:40:36;36.93;;;16.93;;
18899;SDS011;9582;52.018;6.306;2022-12-18T03:43:14;37.50;;;16.30;;
18899;SDS011;9582;52.018;6.306;2022-12-18T03:45:47;30.63;;;15.77;;
18899;SDS011;9582;52.018;6.306;2022-12-18T03:48:21;35.33;;;16.80;;
18899;SDS011;9582;52.018;6.306;2022-12-18T03:50:56;39.93;;;17.17;;
18899;SDS011;9582;52.018;6.306;2022-12-18T03:53:26;37.17;;;18.23;;
18899;SDS011;9582;52.018;6.306;2022-12-18T03:56:01;36.20;;;17.50;;
18899;SDS011;9582;52.018;6.306;2022-12-18T03:58:36;38.70;;;18.73;;
18899;SDS011;9582;52.018;6.306;2022-12-18T04:01:14;36.97;;;17.93;;
18899;SDS011;9582;52.018;6.306;2022-12-18T04:03:45;40.80;;;18.03;;
18899;SDS011;9582;52.018;6.306;2022-12-18T04:06:16;35.13;;;18.87;;
18899;SDS011;9582;52.018;6.306;2022-12-18T04:08:44;34.57;;;18.53;;
18899;SDS011;9582;52.018;6.306;2022-12-18T04:11:15;35.90;;;18.23;;
18899;SDS011;9582;52.018;6.306;2022-12-18T04:13:45;40.20;;;18.63;;
18899;SDS011;9582;52.018;6.306;2022-12-18T04:16:18;36.97;;;18.27;;
18899;SDS011;9582;52.018;6.306;2022-12-18T04:18:48;33.33;;;17.73;;
18899;SDS011;9582;52.018;6.306;2022-12-18T04:21:14;29.00;;;14.40;;
18899;SDS011;9582;52.018;6.306;2022-12-18T04:23:41;29.87;;;13.70;;
18899;SDS011;9582;52.018;6.306;2022-12-18T04:26:07;27.90;;;14.57;;
18899;SDS011;9582;52.018;6.306;2022-12-18T04:28:43;34.47;;;16.27;;
18899;SDS011;9582;52.018;6.306;2022-12-18T04:31:12;35.03;;;17.17;;
18899;SDS011;9582;52.018;6.306;2022-12-18T04:33:38;29.67;;;16.73;;
18899;SDS011;9582;52.018;6.306;2022-12-18T04:36:06;35.00;;;16.17;;
18899;SDS011;9582;52.018;6.306;2022-12-18T04:38:33;35.43;;;16.93;;
18899;SDS011;9582;52.018;6.306;2022-12-18T04:41:05;33.30;;;16.30;;
18899;SDS011;9582;52.018;6.306;2022-12-18T04:43:33;34.87;;;16.60;;
18899;SDS011;9582;52.018;6.306;2022-12-18T04:46:03;32.20;;;16.60;;
18899;SDS011;9582;52.018;6.306;2022-12-18T04:48:31;37.60;;;17.70;;
18899;SDS011;9582;52.018;6.306;2022-12-18T04:50:58;33.17;;;15.63;;
18899;SDS011;9582;52.018;6.306;2022-12-18T04:53:24;28.20;;;15.23;;
18899;SDS011;9582;52.018;6.306;2022-12-18T04:56:01;31.60;;;15.40;;
18899;SDS011;9582;52.018;6.306;2022-12-18T04:58:29;36.10;;;16.67;;
18899;SDS011;9582;52.018;6.306;2022-12-18T05:00:56;36.90;;;16.27;;
18899;SDS011;9582;52.018;6.306;2022-12-18T05:03:22;32.37;;;15.30;;
18899;SDS011;9582;52.018;6.306;2022-12-18T05:05:50;29.90;;;15.63;;
18899;SDS011;9582;52.018;6.306;2022-12-18T05:08:17;31.10;;;15.77;;
18899;SDS011;9582;52.018;6.306;2022-12-18T05:10:44;31.67;;;15.27;;
18899;SDS011;9582;52.018;6.306;2022-12-18T05:13:10;27.53;;;12.60;;
18899;SDS011;9582;52.018;6.306;2022-12-18T05:15:37;22.37;;;10.13;;
18899;SDS011;9582;52.018;6.306;2022-12-18T05:18:03;19.50;;;9.43;;
18899;SDS011;9582;52.018;6.306;2022-12-18T05:20:30;26.00;;;11.10;;
18899;SDS011;9582;52.018;6.306;2022-12-18T05:22:58;27.07;;;12.87;;
18899;SDS011;9582;52.018;6.306;2022-12-18T05:25:25;21.67;;;10.67;;
18899;SDS011;9582;52.018;6.306;2022-12-18T05:27:51;28.27;;;11.40;;
18899;SDS011;9582;52.018;6.306;2022-12-18T05:30:18;20.70;;;11.93;;
18899;SDS011;9582;52.018;6.306;2022-12-18T05:32:44;27.27;;;13.07;;
18899;SDS011;9582;52.018;6.306;2022-12-18T05:35:11;19.20;;;11.43;;
18899;SDS011;9582;52.018;6.306;2022-12-18T05:37:37;23.83;;;11.20;;
18899;SDS011;9582;52.018;6.306;2022-12-18T05:40:06;26.90;;;13.23;;
18899;SDS011;9582;52.018;6.306;2022-12-18T05:42:33;24.67;;;11.50;;
18899;SDS011;9582;52.018;6.306;2022-12-18T05:45:00;26.90;;;12.17;;
18899;SDS011;9582;52.018;6.306;2022-12-18T05:47:26;26.67;;;11.27;;
18899;SDS011;9582;52.018;6.306;2022-12-18T05:49:53;25.77;;;12.33;;
18899;SDS011;9582;52.018;6.306;2022-12-18T05:52:20;25.90;;;13.67;;
18899;SDS011;9582;52.018;6.306;2022-12-18T05:54:46;26.10;;;12.03;;
18899;SDS011;9582;52.018;6.306;2022-12-18T05:57:14;26.03;;;13.27;;
18899;SDS011;9582;52.018;6.306;2022-12-18T05:59:41;26.17;;;13.23;;
18899;SDS011;9582;52.018;6.306;2022-12-18T06:02:07;26.57;;;12.03;;
18899;SDS011;9582;52.018;6.306;2022-12-18T06:04:34;23.20;;;10.77;;
18899;SDS011;9582;52.018;6.306;2022-12-18T06:07:00;25.10;;;12.83;;
18899;SDS011;9582;52.018;6.306;2022-12-18T06:09:28;25.47;;;11.73;;
18899;SDS011;9582;52.018;6.306;2022-12-18T06:11:55;24.50;;;11.53;;
18899;SDS011;9582;52.018;6.306;2022-12-18T06:14:23;26.00;;;13.13;;
18899;SDS011;9582;52.018;6.306;2022-12-18T06:16:50;24.47;;;12.00;;
18899;SDS011;9582;52.018;6.306;2022-12-18T06:19:17;24.90;;;12.77;;
18899;SDS011;9582;52.018;6.306;2022-12-18T06:21:44;25.00;;;11.80;;
18899;SDS011;9582;52.018;6.306;2022-12-18T06:24:10;27.63;;;14.10;;
18899;SDS011;9582;52.018;6.306;2022-12-18T06:26:37;29.23;;;13.30;;
18899;SDS011;9582;52.018;6.306;2022-12-18T06:29:04;28.57;;;13.33;;
18899;SDS011;9582;52.018;6.306;2022-12-18T06:31:33;22.13;;;10.00;;
18899;SDS011;9582;52.018;6.306;2022-12-18T06:34:01;22.37;;;9.40;;
18899;SDS011;9582;52.018;6.306;2022-12-18T06:36:29;20.90;;;9.57;;
18899;SDS011;9582;52.018;6.306;2022-12-18T06:38:56;20.83;;;10.17;;
18899;SDS011;9582;52.018;6.306;2022-12-18T06:41:23;28.13;;;12.60;;
18899;SDS011;9582;52.018;6.306;2022-12-18T06:43:49;21.97;;;10.73;;
18899;SDS011;9582;52.018;6.306;2022-12-18T06:46:16;21.13;;;10.47;;
18899;SDS011;9582;52.018;6.306;2022-12-18T06:48:45;20.00;;;9.47;;
18899;SDS011;9582;52.018;6.306;2022-12-18T06:51:15;22.67;;;10.20;;
18899;SDS011;9582;52.018;6.306;2022-12-18T06:53:42;16.00;;;8.27;;
18899;SDS011;9582;52.018;6.306;2022-12-18T06:56:09;20.83;;;10.40;;
18899;SDS011;9582;52.018;6.306;2022-12-18T06:58:35;22.40;;;10.07;;
18899;SDS011;9582;52.018;6.306;2022-12-18T07:01:02;28.40;;;13.73;;
18899;SDS011;9582;52.018;6.306;2022-12-18T07:03:29;18.87;;;8.20;;
18899;SDS011;9582;52.018;6.306;2022-12-18T07:05:57;13.10;;;7.07;;
18899;SDS011;9582;52.018;6.306;2022-12-18T07:08:24;13.47;;;6.83;;
18899;SDS011;9582;52.018;6.306;2022-12-18T07:10:51;17.63;;;9.03;;
18899;SDS011;9582;52.018;6.306;2022-12-18T07:13:19;15.97;;;8.10;;
18899;SDS011;9582;52.018;6.306;2022-12-18T07:15:45;14.67;;;7.60;;
18899;SDS011;9582;52.018;6.306;2022-12-18T07:18:11;17.20;;;9.30;;
18899;SDS011;9582;52.018;6.306;2022-12-18T07:20:38;18.63;;;8.80;;
18899;SDS011;9582;52.018;6.306;2022-12-18T07:23:06;18.53;;;8.70;;
18899;SDS011;9582;52.018;6.306;2022-12-18T07:25:33;16.50;;;8.27;;
18899;SDS011;9582;52.018;6.306;2022-12-18T07:28:00;18.53;;;11.07;;
18899;SDS011;9582;52.018;6.306;2022-12-18T07:30:26;16.03;;;8.47;;
18899;SDS011;9582;52.018;6.306;2022-12-18T07:32:53;16.83;;;8.37;;
18899;SDS011;9582;52.018;6.306;2022-12-18T07:35:19;21.20;;;10.93;;
18899;SDS011;9582;52.018;6.306;2022-12-18T07:37:46;21.43;;;10.73;;
18899;SDS011;9582;52.018;6.306;2022-12-18T07:40:13;28.73;;;11.60;;
18899;SDS011;9582;52.018;6.306;2022-12-18T07:42:40;21.90;;;10.97;;
18899;SDS011;9582;52.018;6.306;2022-12-18T07:45:07;18.13;;;10.03;;
18899;SDS011;9582;52.018;6.306;2022-12-18T07:47:34;22.23;;;10.73;;
18899;SDS011;9582;52.018;6.306;2022-12-18T07:50:01;22.90;;;11.20;;
18899;SDS011;9582;52.018;6.306;2022-12-18T07:52:28;24.10;;;11.87;;
18899;SDS011;9582;52.018;6.306;2022-12-18T07:54:54;21.63;;;10.33;;
18899;SDS011;9582;52.018;6.306;2022-12-18T07:57:22;21.40;;;9.67;;
18899;SDS011;9582;52.018;6.306;2022-12-18T07:59:49;22.30;;;10.93;;
18899;SDS011;9582;52.018;6.306;2022-12-18T08:02:15;22.93;;;11.20;;
18899;SDS011;9582;52.018;6.306;2022-12-18T08:04:42;24.03;;;12.27;;
18899;SDS011;9582;52.018;6.306;2022-12-18T08:07:08;21.40;;;11.87;;
18899;SDS011;9582;52.018;6.306;2022-12-18T08:09:35;23.53;;;12.37;;
18899;SDS011;9582;52.018;6.306;2022-12-18T08:12:01;24.23;;;11.67;;
18899;SDS011;9582;52.018;6.306;2022-12-18T08:14:29;22.67;;;10.50;;
18899;SDS011;9582;52.018;6.306;2022-12-18T08:16:56;19.03;;;10.27;;
18899;SDS011;9582;52.018;6.306;2022-12-18T08:19:22;24.47;;;11.33;;
18899;SDS011;9582;52.018;6.306;2022-12-18T08:21:49;17.23;;;9.80;;
18899;SDS011;9582;52.018;6.306;2022-12-18T08:24:16;18.60;;;10.37;;
18899;SDS011;9582;52.018;6.306;2022-12-18T08:26:42;21.67;;;9.37;;
18899;SDS011;9582;52.018;6.306;2022-12-18T08:29:09;23.03;;;11.20;;
18899;SDS011;9582;52.018;6.306;2022-12-18T08:31:37;21.03;;;10.10;;
18899;SDS011;9582;52.018;6.306;2022-12-18T08:34:03;17.90;;;8.83;;
18899;SDS011;9582;52.018;6.306;2022-12-18T08:36:30;21.20;;;11.10;;
18899;SDS011;9582;52.018;6.306;2022-12-18T08:38:56;20.80;;;11.77;;
18899;SDS011;9582;52.018;6.306;2022-12-18T08:41:23;21.30;;;12.03;;
18899;SDS011;9582;52.018;6.306;2022-12-18T08:43:49;17.30;;;10.13;;
18899;SDS011;9582;52.018;6.306;2022-12-18T08:46:34;22.47;;;11.20;;
18899;SDS011;9582;52.018;6.306;2022-12-18T08:49:04;21.27;;;10.67;;
18899;SDS011;9582;52.018;6.306;2022-12-18T08:51:31;19.83;;;9.83;;
18899;SDS011;9582;52.018;6.306;2022-12-18T08:53:57;15.97;;;8.57;;
18899;SDS011;9582;52.018;6.306;2022-12-18T08:56:24;18.93;;;9.90;;
18899;SDS011;9582;52.018;6.306;2022-12-18T08:58:51;17.23;;;9.03;;
18899;SDS011;9582;52.018;6.306;2022-12-18T09:01:18;17.40;;;9.97;;
18899;SDS011;9582;52.018;6.306;2022-12-18T09:03:46;18.67;;;10.37;;
18899;SDS011;9582;52.018;6.306;2022-12-18T09:06:14;19.67;;;10.13;;
18899;SDS011;9582;52.018;6.306;2022-12-18T09:08:42;15.83;;;9.07;;
18899;SDS011;9582;52.018;6.306;2022-12-18T09:11:11;20.67;;;9.93;;
18899;SDS011;9582;52.018;6.306;2022-12-18T09:13:40;15.97;;;8.47;;
18899;SDS011;9582;52.018;6.306;2022-12-18T09:16:06;18.87;;;10.00;;
18899;SDS011;9582;52.018;6.306;2022-12-18T09:18:33;18.43;;;9.60;;
18899;SDS011;9582;52.018;6.306;2022-12-18T09:20:59;15.77;;;9.20;;
18899;SDS011;9582;52.018;6.306;2022-12-18T09:23:28;15.90;;;9.43;;
18899;SDS011;9582;52.018;6.306;2022-12-18T09:25:58;15.80;;;9.23;;
18899;SDS011;9582;52.018;6.306;2022-12-18T09:28:24;16.00;;;8.93;;
18899;SDS011;9582;52.018;6.306;2022-12-18T09:30:51;14.80;;;8.33;;
18899;SDS011;9582;52.018;6.306;2022-12-18T09:33:17;17.43;;;9.30;;
18899;SDS011;9582;52.018;6.306;2022-12-18T09:35:44;14.43;;;8.63;;
18899;SDS011;9582;52.018;6.306;2022-12-18T09:38:12;10.53;;;7.03;;
18899;SDS011;9582;52.018;6.306;2022-12-18T09:40:42;12.33;;;7.77;;
18899;SDS011;9582;52.018;6.306;2022-12-18T09:43:13;12.17;;;6.93;;
18899;SDS011;9582;52.018;6.306;2022-12-18T09:45:45;17.33;;;7.90;;
18899;SDS011;9582;52.018;6.306;2022-12-18T09:48:15;12.33;;;7.93;;
18899;SDS011;9582;52.018;6.306;2022-12-18T09:50:47;13.30;;;8.20;;
18899;SDS011;9582;52.018;6.306;2022-12-18T09:53:17;11.90;;;7.40;;
18899;SDS011;9582;52.018;6.306;2022-12-18T09:55:48;14.00;;;8.00;;
18899;SDS011;9582;52.018;6.306;2022-12-18T09:58:19;12.37;;;7.40;;
18899;SDS011;9582;52.018;6.306;2022-12-18T10:00:51;12.90;;;8.27;;
18899;SDS011;9582;52.018;6.306;2022-12-18T10:03:17;13.43;;;8.37;;
18899;SDS011;9582;52.018;6.306;2022-12-18T10:05:59;12.87;;;8.37;;
18899;SDS011;9582;52.018;6.306;2022-12-18T10:08:34;14.30;;;8.23;;
18899;SDS011;9582;52.018;6.306;2022-12-18T10:11:15;13.30;;;7.93;;
18899;SDS011;9582;52.018;6.306;2022-12-18T10:13:52;13.23;;;7.43;;
18899;SDS011;9582;52.018;6.306;2022-12-18T10:16:25;13.03;;;7.53;;
18899;SDS011;9582;52.018;6.306;2022-12-18T10:19:00;14.23;;;8.00;;
18899;SDS011;9582;52.018;6.306;2022-12-18T10:21:38;14.97;;;8.27;;
18899;SDS011;9582;52.018;6.306;2022-12-18T10:24:13;15.57;;;8.20;;
18899;SDS011;9582;52.018;6.306;2022-12-18T10:26:51;11.87;;;7.73;;
18899;SDS011;9582;52.018;6.306;2022-12-18T10:29:19;16.27;;;7.80;;
18899;SDS011;9582;52.018;6.306;2022-12-18T10:31:45;12.67;;;7.93;;
18899;SDS011;9582;52.018;6.306;2022-12-18T10:34:12;14.63;;;7.77;;
18899;SDS011;9582;52.018;6.306;2022-12-18T10:36:38;12.70;;;7.77;;
18899;SDS011;9582;52.018;6.306;2022-12-18T10:39:14;12.23;;;7.30;;
18899;SDS011;9582;52.018;6.306;2022-12-18T10:41:42;12.93;;;7.83;;
18899;SDS011;9582;52.018;6.306;2022-12-18T10:44:12;11.53;;;7.43;;
18899;SDS011;9582;52.018;6.306;2022-12-18T10:46:42;12.23;;;7.50;;
18899;SDS011;9582;52.018;6.306;2022-12-18T10:49:18;11.27;;;6.60;;
18899;SDS011;9582;52.018;6.306;2022-12-18T10:51:47;11.37;;;7.10;;
18899;SDS011;9582;52.018;6.306;2022-12-18T10:54:15;12.50;;;7.10;;
18899;SDS011;9582;52.018;6.306;2022-12-18T10:56:44;12.67;;;7.23;;
18899;SDS011;9582;52.018;6.306;2022-12-18T10:59:13;12.00;;;7.03;;
18899;SDS011;9582;52.018;6.306;2022-12-18T11:01:48;12.03;;;7.10;;
18899;SDS011;9582;52.018;6.306;2022-12-18T11:04:17;11.90;;;7.50;;
18899;SDS011;9582;52.018;6.306;2022-12-18T11:06:53;11.70;;;6.70;;
18899;SDS011;9582;52.018;6.306;2022-12-18T11:09:22;8.90;;;5.73;;
18899;SDS011;9582;52.018;6.306;2022-12-18T11:11:50;13.87;;;6.03;;
18899;SDS011;9582;52.018;6.306;2022-12-18T11:14:21;10.27;;;6.33;;
18899;SDS011;9582;52.018;6.306;2022-12-18T11:16:49;11.80;;;6.80;;
18899;SDS011;9582;52.018;6.306;2022-12-18T11:19:26;8.97;;;5.57;;
18899;SDS011;9582;52.018;6.306;2022-12-18T11:21:57;6.97;;;3.90;;
18899;SDS011;9582;52.018;6.306;2022-12-18T11:24:27;7.67;;;5.13;;
18899;SDS011;9582;52.018;6.306;2022-12-18T11:26:57;10.70;;;6.53;;
18899;SDS011;9582;52.018;6.306;2022-12-18T11:29:34;14.37;;;7.53;;
18899;SDS011;9582;52.018;6.306;2022-12-18T11:35:02;8.57;;;6.10;;
18899;SDS011;9582;52.018;6.306;2022-12-18T11:37:35;13.27;;;7.33;;
18899;SDS011;9582;52.018;6.306;2022-12-18T11:40:03;11.23;;;6.67;;
18899;SDS011;9582;52.018;6.306;2022-12-18T11:42:38;10.37;;;6.90;;
18899;SDS011;9582;52.018;6.306;2022-12-18T11:45:20;11.27;;;6.47;;
18899;SDS011;9582;52.018;6.306;2022-12-18T11:47:54;9.07;;;5.37;;
18899;SDS011;9582;52.018;6.306;2022-12-18T11:50:26;10.50;;;6.80;;
18899;SDS011;9582;52.018;6.306;2022-12-18T11:52:58;11.10;;;6.27;;
18899;SDS011;9582;52.018;6.306;2022-12-18T11:55:27;13.67;;;7.93;;
18899;SDS011;9582;52.018;6.306;2022-12-18T11:58:03;10.40;;;6.47;;
18899;SDS011;9582;52.018;6.306;2022-12-18T12:00:42;10.33;;;6.33;;
18899;SDS011;9582;52.018;6.306;2022-12-18T12:03:20;11.93;;;6.70;;
18899;SDS011;9582;52.018;6.306;2022-12-18T12:05:56;9.43;;;5.87;;
18899;SDS011;9582;52.018;6.306;2022-12-18T12:08:33;10.70;;;7.30;;
18899;SDS011;9582;52.018;6.306;2022-12-18T12:11:10;9.67;;;4.67;;
18899;SDS011;9582;52.018;6.306;2022-12-18T12:13:48;10.10;;;6.23;;
18899;SDS011;9582;52.018;6.306;2022-12-18T12:16:25;13.00;;;6.70;;
18899;SDS011;9582;52.018;6.306;2022-12-18T12:19:04;10.60;;;6.57;;
18899;SDS011;9582;52.018;6.306;2022-12-18T12:21:45;11.13;;;7.50;;
18899;SDS011;9582;52.018;6.306;2022-12-18T12:24:27;11.13;;;6.83;;
18899;SDS011;9582;52.018;6.306;2022-12-18T12:27:05;9.00;;;6.10;;
18899;SDS011;9582;52.018;6.306;2022-12-18T12:29:42;10.40;;;6.97;;
18899;SDS011;9582;52.018;6.306;2022-12-18T12:32:22;11.23;;;6.60;;
18899;SDS011;9582;52.018;6.306;2022-12-18T12:35:01;11.47;;;7.33;;
18899;SDS011;9582;52.018;6.306;2022-12-18T12:37:38;8.17;;;5.77;;
18899;SDS011;9582;52.018;6.306;2022-12-18T12:40:13;9.83;;;6.40;;
18899;SDS011;9582;52.018;6.306;2022-12-18T12:42:46;9.30;;;6.60;;
18899;SDS011;9582;52.018;6.306;2022-12-18T12:45:36;12.53;;;7.27;;
18899;SDS011;9582;52.018;6.306;2022-12-18T12:48:10;11.10;;;6.70;;
18899;SDS011;9582;52.018;6.306;2022-12-18T12:50:44;10.57;;;7.23;;
18899;SDS011;9582;52.018;6.306;2022-12-18T12:53:15;12.03;;;8.07;;
18899;SDS011;9582;52.018;6.306;2022-12-18T12:55:48;13.47;;;7.30;;
18899;SDS011;9582;52.018;6.306;2022-12-18T12:58:16;11.53;;;6.90;;
18899;SDS011;9582;52.018;6.306;2022-12-18T13:00:49;11.80;;;7.33;;
18899;SDS011;9582;52.018;6.306;2022-12-18T13:03:27;11.67;;;6.57;;
18899;SDS011;9582;52.018;6.306;2022-12-18T13:06:02;10.80;;;6.70;;
18899;SDS011;9582;52.018;6.306;2022-12-18T13:08:51;13.20;;;7.77;;
18899;SDS011;9582;52.018;6.306;2022-12-18T13:11:30;14.13;;;7.20;;
18899;SDS011;9582;52.018;6.306;2022-12-18T13:14:21;10.30;;;7.10;;
18899;SDS011;9582;52.018;6.306;2022-12-18T13:16:50;13.73;;;6.77;;
18899;SDS011;9582;52.018;6.306;2022-12-18T13:19:22;8.47;;;6.00;;
18899;SDS011;9582;52.018;6.306;2022-12-18T13:21:52;11.23;;;7.33;;
18899;SDS011;9582;52.018;6.306;2022-12-18T13:24:22;10.73;;;6.73;;
18899;SDS011;9582;52.018;6.306;2022-12-18T13:26:51;11.07;;;7.23;;
18899;SDS011;9582;52.018;6.306;2022-12-18T13:32:18;11.70;;;7.70;;
18899;SDS011;9582;52.018;6.306;2022-12-18T13:34:48;11.00;;;7.30;;
18899;SDS011;9582;52.018;6.306;2022-12-18T13:43:23;9.63;;;6.33;;
18899;SDS011;9582;52.018;6.306;2022-12-18T13:46:00;12.03;;;7.70;;
18899;SDS011;9582;52.018;6.306;2022-12-18T13:48:30;12.27;;;7.20;;
18899;SDS011;9582;52.018;6.306;2022-12-18T13:51:01;11.47;;;7.77;;
18899;SDS011;9582;52.018;6.306;2022-12-18T13:53:30;12.23;;;8.10;;
18899;SDS011;9582;52.018;6.306;2022-12-18T13:56:02;11.80;;;7.33;;
18899;SDS011;9582;52.018;6.306;2022-12-18T13:58:29;10.63;;;8.00;;
18899;SDS011;9582;52.018;6.306;2022-12-18T14:00:56;13.70;;;7.97;;
18899;SDS011;9582;52.018;6.306;2022-12-18T14:03:25;11.87;;;7.97;;
18899;SDS011;9582;52.018;6.306;2022-12-18T14:05:53;13.70;;;8.43;;
18899;SDS011;9582;52.018;6.306;2022-12-18T14:08:29;13.20;;;8.37;;
18899;SDS011;9582;52.018;6.306;2022-12-18T14:11:00;13.67;;;8.53;;
18899;SDS011;9582;52.018;6.306;2022-12-18T14:13:30;14.00;;;8.77;;
18899;SDS011;9582;52.018;6.306;2022-12-18T14:16:00;13.93;;;9.27;;
18899;SDS011;9582;52.018;6.306;2022-12-18T14:18:29;12.90;;;8.50;;
18899;SDS011;9582;52.018;6.306;2022-12-18T14:21:00;12.67;;;9.10;;
18899;SDS011;9582;52.018;6.306;2022-12-18T14:23:31;12.13;;;8.20;;
18899;SDS011;9582;52.018;6.306;2022-12-18T14:26:00;14.43;;;8.50;;
18899;SDS011;9582;52.018;6.306;2022-12-18T14:28:27;13.13;;;9.00;;
18899;SDS011;9582;52.018;6.306;2022-12-18T14:30:55;14.17;;;8.40;;
18899;SDS011;9582;52.018;6.306;2022-12-18T14:33:23;14.05;;;8.23;;
18899;SDS011;9582;52.018;6.306;2022-12-18T14:35:54;13.87;;;8.77;;
18899;SDS011;9582;52.018;6.306;2022-12-18T14:38:25;13.03;;;8.50;;
18899;SDS011;9582;52.018;6.306;2022-12-18T14:40:56;12.07;;;8.50;;
18899;SDS011;9582;52.018;6.306;2022-12-18T14:43:24;14.10;;;8.73;;
18899;SDS011;9582;52.018;6.306;2022-12-18T14:45:52;12.00;;;8.20;;
18899;SDS011;9582;52.018;6.306;2022-12-18T14:48:19;12.73;;;8.37;;
18899;SDS011;9582;52.018;6.306;2022-12-18T14:50:59;13.37;;;8.67;;
18899;SDS011;9582;52.018;6.306;2022-12-18T14:53:31;16.67;;;9.00;;
18899;SDS011;9582;52.018;6.306;2022-12-18T14:56:02;12.97;;;8.70;;
18899;SDS011;9582;52.018;6.306;2022-12-18T14:58:38;13.40;;;8.53;;
18899;SDS011;9582;52.018;6.306;2022-12-18T15:01:05;11.43;;;8.47;;
18899;SDS011;9582;52.018;6.306;2022-12-18T15:03:32;13.97;;;8.43;;
18899;SDS011;9582;52.018;6.306;2022-12-18T15:08:43;13.37;;;8.63;;
18899;SDS011;9582;52.018;6.306;2022-12-18T15:16:52;13.60;;;8.20;;
18899;SDS011;9582;52.018;6.306;2022-12-18T15:19:20;12.30;;;8.40;;
18899;SDS011;9582;52.018;6.306;2022-12-18T15:21:47;10.87;;;7.13;;